createdAt,value
2019-04-19T00:00:54.329Z,63.07
2019-04-19T00:03:28.555Z,63.37
2019-04-19T00:06:05.087Z,62.92
2019-04-19T00:08:58.908Z,63.22
2019-04-19T00:11:25.918Z,63.28
2019-04-19T00:13:51.475Z,63.23
2019-04-19T00:16:25.736Z,63.48
2019-04-19T00:19:20.128Z,63.37
2019-04-19T00:22:01.921Z,64.06
2019-04-19T00:24:12.118Z,64.06
2019-04-19T00:26:46.735Z,64.31
2019-04-19T00:29:28.401Z,64.61
2019-04-19T00:32:14.080Z,64.62
2019-04-19T00:34:31.755Z,64.92
2019-04-19T00:37:05.770Z,64.77
2019-04-19T00:40:11.796Z,65.12
2019-04-19T00:42:57.212Z,65.86
2019-04-19T00:46:16.071Z,65.92
2019-04-19T00:48:47.451Z,66.06
2019-04-19T00:51:17.510Z,66.26
2019-04-19T00:53:57.218Z,66.46
2019-04-19T00:56:32.606Z,66.34
2019-04-19T00:59:00.701Z,66.68
2019-04-19T01:01:32.197Z,66.51
2019-04-19T01:04:15.585Z,66.40
2019-04-19T01:06:48.452Z,66.61
2019-04-19T01:09:30.973Z,66.85
2019-04-19T01:12:07.916Z,67.09
2019-04-19T01:14:38.228Z,66.91
2019-04-19T01:17:16.565Z,66.83
2019-04-19T01:19:47.205Z,66.83
2019-04-19T01:22:22.078Z,66.43
2019-04-19T01:24:52.464Z,66.61
2019-04-19T01:27:29.483Z,66.46
2019-04-19T01:30:02.928Z,66.60
2019-04-19T01:32:47.047Z,66.21
2019-04-19T01:35:16.681Z,66.28
2019-04-19T01:37:54.104Z,66.10
2019-04-19T01:40:44.017Z,66.15
2019-04-19T01:43:19.035Z,66.11
2019-04-19T01:46:13.034Z,65.75
2019-04-19T01:49:05.650Z,65.87
2019-04-19T01:51:58.654Z,65.66
2019-04-19T01:54:33.390Z,65.36
2019-04-19T01:56:58.252Z,64.78
2019-04-19T01:59:33.284Z,65.06
2019-04-19T02:02:11.682Z,64.36
2019-04-19T02:04:41.371Z,64.05
2019-04-19T02:07:19.694Z,64.41
2019-04-19T02:10:05.300Z,63.87
2019-04-19T02:12:39.395Z,63.95
2019-04-19T02:15:07.952Z,63.95
2019-04-19T02:17:43.093Z,63.87
2019-04-19T02:20:14.074Z,64.32
2019-04-19T02:22:55.149Z,64.55
2019-04-19T02:25:27.893Z,63.83
2019-04-19T02:28:00.578Z,63.49
2019-04-19T02:30:47.942Z,64.93
2019-04-19T02:33:39.258Z,64.27
2019-04-19T02:36:19.169Z,64.55
2019-04-19T02:39:00.685Z,64.26
2019-04-19T02:41:26.591Z,65.21
2019-04-19T02:44:03.945Z,65.17
2019-04-19T02:46:45.419Z,65.36
2019-04-19T02:51:48.253Z,65.24
2019-04-19T02:54:28.560Z,65.07
2019-04-19T02:57:10.207Z,65.30
2019-04-19T03:00:04.478Z,65.20
2019-04-19T03:02:50.233Z,65.11
2019-04-19T03:07:21.744Z,65.29
2019-04-19T03:09:55.689Z,65.69
2019-04-19T03:12:48.662Z,65.55
2019-04-19T03:15:18.771Z,65.43
2019-04-19T03:18:03.546Z,65.89
2019-04-19T03:20:34.569Z,66.18
2019-04-19T03:23:10.780Z,66.78
2019-04-19T03:25:45.261Z,67.36
2019-04-19T03:28:19.774Z,66.84
2019-04-19T03:31:08.227Z,67.34
2019-04-19T03:36:12.004Z,66.51
2019-04-19T03:38:45.645Z,67.48
2019-04-19T03:41:43.207Z,67.12
2019-04-19T03:44:21.095Z,66.86
2019-04-19T03:47:06.800Z,66.82
2019-04-19T03:52:15.630Z,66.93
2019-04-19T03:54:41.231Z,67.13
2019-04-19T03:57:16.732Z,67.22
2019-04-19T03:59:37.241Z,67.38
2019-04-19T04:02:15.293Z,67.38
2019-04-19T04:04:52.675Z,67.68
2019-04-19T04:07:27.079Z,67.20
2019-04-19T04:10:07.908Z,66.64
2019-04-19T04:12:55.736Z,66.64
2019-04-19T04:16:02.780Z,66.89
2019-04-19T04:18:19.644Z,67.18
2019-04-19T04:20:57.285Z,66.99
2019-04-19T04:23:36.439Z,67.33
2019-04-19T04:26:11.465Z,67.33
2019-04-19T04:28:52.547Z,68.15
2019-04-19T04:31:24.517Z,68.44
2019-04-19T04:34:00.808Z,67.96
2019-04-19T04:36:45.104Z,67.96
2019-04-19T04:39:03.496Z,67.90
2019-04-19T04:41:37.661Z,67.48
2019-04-19T04:44:29.484Z,67.29
2019-04-19T04:47:31.372Z,67.29
2019-04-19T04:50:19.461Z,67.03
2019-04-19T04:52:37.037Z,67.32
2019-04-19T04:55:24.284Z,66.71
2019-04-19T04:58:02.469Z,66.71
2019-04-19T05:00:44.091Z,67.15
2019-04-19T05:03:30.534Z,67.62
2019-04-19T05:06:07.775Z,67.65
2019-04-19T05:08:38.877Z,67.63
2019-04-19T05:11:16.745Z,67.63
2019-04-19T05:13:51.430Z,66.56
2019-04-19T05:16:35.280Z,67.08
2019-04-19T05:19:00.571Z,66.73
2019-04-19T05:21:37.356Z,66.56
2019-04-19T05:24:15.035Z,67.29
2019-04-19T05:26:52.484Z,67.06
2019-04-19T05:29:17.550Z,66.02
2019-04-19T05:31:46.696Z,66.59
2019-04-19T05:34:36.279Z,66.59
2019-04-19T05:37:10.625Z,66.12
2019-04-19T05:40:11.109Z,65.97
2019-04-19T05:42:56.495Z,65.79
2019-04-19T05:45:46.828Z,66.36
2019-04-19T05:48:00.536Z,65.75
2019-04-19T05:50:56.749Z,65.46
2019-04-19T05:53:18.116Z,65.72
2019-04-19T05:55:41.192Z,65.45
2019-04-19T05:58:24.140Z,64.80
2019-04-19T06:01:04.571Z,65.06
2019-04-19T06:03:43.917Z,65.02
2019-04-19T06:06:26.130Z,65.22
2019-04-19T06:08:39.267Z,64.64
2019-04-19T06:11:15.305Z,63.88
2019-04-19T06:14:02.844Z,63.27
2019-04-19T06:16:41.629Z,63.05
2019-04-19T06:19:26.799Z,62.82
2019-04-19T06:21:53.450Z,63.57
2019-04-19T06:24:40.253Z,61.92
2019-04-19T06:27:17.718Z,62.02
2019-04-19T06:29:50.270Z,61.63
2019-04-19T06:32:30.855Z,61.55
2019-04-19T06:34:58.087Z,62.20
2019-04-19T06:37:19.688Z,61.22
2019-04-19T06:40:02.822Z,60.33
2019-04-19T06:42:35.810Z,60.48
2019-04-19T06:45:18.923Z,61.00
2019-04-19T06:47:47.568Z,60.27
2019-04-19T06:50:17.133Z,61.31
2019-04-19T06:52:48.952Z,60.20
2019-04-19T06:55:28.216Z,60.80
2019-04-19T06:58:11.597Z,58.94
2019-04-19T07:00:49.556Z,58.46
2019-04-19T07:03:14.378Z,58.13
2019-04-19T07:06:06.069Z,56.34
2019-04-19T07:09:04.092Z,58.33
2019-04-19T07:11:21.640Z,57.07
2019-04-19T07:13:45.079Z,55.99
2019-04-19T07:16:35.006Z,56.62
2019-04-19T07:19:07.947Z,56.55
2019-04-19T07:21:44.008Z,56.42
2019-04-19T07:24:28.204Z,56.28
2019-04-19T07:26:52.450Z,56.22
2019-04-19T07:29:10.633Z,55.62
2019-04-19T07:31:44.974Z,55.56
2019-04-19T07:34:37.234Z,53.81
2019-04-19T07:37:14.714Z,52.37
2019-04-19T07:39:55.665Z,53.81
2019-04-19T07:42:38.812Z,53.01
2019-04-19T07:45:05.303Z,51.99
2019-04-19T07:47:47.429Z,54.25
2019-04-19T07:50:22.654Z,53.93
2019-04-19T07:52:55.415Z,52.29
2019-04-19T07:55:26.767Z,51.48
2019-04-19T07:58:30.373Z,51.30
2019-04-19T08:01:12.143Z,50.73
2019-04-19T08:03:47.839Z,49.97
2019-04-19T08:06:18.977Z,49.81
2019-04-19T08:08:57.100Z,49.66
2019-04-19T08:11:51.320Z,47.91
2019-04-19T08:14:00.939Z,48.34
2019-04-19T08:17:22.352Z,48.32
2019-04-19T08:29:22.431Z,35.88
2019-04-19T08:31:44.482Z,33.05
2019-04-19T08:34:21.726Z,31.27
2019-04-19T08:37:00.021Z,30.43
2019-04-19T08:39:45.692Z,27.77
2019-04-19T08:42:28.598Z,26.69
2019-04-19T08:44:52.491Z,25.33
2019-04-19T08:48:04.739Z,24.98
2019-04-19T08:50:35.988Z,24.62
2019-04-19T08:53:26.780Z,23.63
2019-04-19T08:56:00.752Z,23.63
2019-04-19T08:58:36.386Z,22.66
2019-04-19T09:01:18.997Z,23.38
2019-04-19T09:03:54.033Z,22.38
2019-04-19T09:08:58.163Z,22.25
2019-04-19T09:11:33.693Z,21.35
2019-04-19T09:14:13.526Z,21.25
2019-04-19T09:16:51.229Z,22.39
2019-04-19T09:19:37.519Z,21.33
2019-04-19T09:21:55.887Z,20.37
2019-04-19T09:24:26.999Z,21.40
2019-04-19T09:27:05.981Z,21.30
2019-04-19T09:29:45.047Z,21.02
2019-04-19T09:32:10.279Z,20.21
2019-04-19T09:34:43.978Z,20.47
2019-04-19T09:37:21.675Z,20.34
2019-04-19T09:40:00.769Z,20.29
2019-04-19T09:42:37.871Z,20.76
2019-04-19T09:45:02.626Z,21.33
2019-04-19T09:47:36.013Z,19.54
2019-04-19T09:50:21.188Z,19.45
2019-04-19T09:53:10.926Z,20.38
2019-04-19T09:55:42.044Z,20.26
2019-04-19T09:58:19.797Z,20.84
2019-04-19T10:00:33.986Z,20.30
2019-04-19T10:03:18.749Z,20.36
2019-04-19T10:05:44.635Z,19.20
2019-04-19T10:08:19.723Z,18.94
2019-04-19T10:10:54.777Z,18.35
2019-04-19T10:13:30.023Z,19.80
2019-04-19T10:16:14.740Z,19.43
2019-04-19T10:18:53.972Z,19.45
2019-04-19T10:21:33.392Z,19.08
2019-04-19T10:24:11.747Z,18.51
2019-04-19T10:26:58.985Z,17.96
2019-04-19T10:29:38.143Z,17.88
2019-04-19T10:32:16.815Z,17.87
2019-04-19T10:34:50.593Z,18.55
2019-04-19T10:37:25.932Z,18.39
2019-04-19T10:39:59.833Z,18.59
2019-04-19T10:42:33.671Z,18.21
2019-04-19T10:45:10.076Z,17.53
2019-04-19T10:47:44.223Z,17.78
2019-04-19T10:50:29.399Z,17.44
2019-04-19T10:52:56.479Z,17.92
2019-04-19T10:55:36.267Z,18.08
2019-04-19T10:58:11.520Z,18.43
2019-04-19T11:00:45.413Z,18.36
2019-04-19T11:03:19.436Z,18.13
2019-04-19T11:05:54.520Z,17.44
2019-04-19T11:08:28.736Z,18.71
2019-04-19T11:11:03.608Z,18.96
2019-04-19T11:13:38.139Z,19.04
2019-04-19T11:16:12.213Z,19.35
2019-04-19T11:18:47.652Z,17.69
2019-04-19T11:21:21.706Z,19.05
2019-04-19T11:23:55.785Z,18.72
2019-04-19T11:26:30.568Z,17.90
2019-04-19T11:29:04.384Z,19.16
2019-04-19T11:32:04.429Z,18.09
2019-04-19T11:34:38.960Z,18.48
2019-04-19T11:37:14.107Z,16.62
2019-04-19T11:39:48.751Z,17.84
2019-04-19T11:42:23.328Z,18.23
2019-04-19T11:44:57.482Z,18.32
2019-04-19T11:47:31.181Z,16.58
2019-04-19T11:50:06.474Z,16.59
2019-04-19T11:53:06.194Z,17.79
2019-04-19T11:55:42.653Z,17.40
2019-04-19T11:58:17.002Z,16.76
2019-04-19T12:01:03.712Z,17.00
2019-04-19T12:03:40.300Z,17.83
2019-04-19T12:06:14.335Z,17.39
2019-04-19T12:08:49.620Z,16.87
2019-04-19T12:11:24.301Z,16.48
2019-04-19T12:13:58.422Z,17.01
2019-04-19T12:16:32.900Z,17.55
2019-04-19T12:19:07.101Z,16.75
2019-04-19T12:21:41.321Z,16.00
2019-04-19T12:24:15.067Z,17.46
2019-04-19T12:26:49.480Z,17.66
2019-04-19T12:29:30.042Z,17.79
2019-04-19T12:31:58.868Z,15.85
2019-04-19T12:34:32.961Z,17.25
2019-04-19T12:37:07.021Z,17.13
2019-04-19T12:39:41.183Z,16.42
2019-04-19T12:42:31.856Z,16.39
2019-04-19T12:45:08.208Z,17.26
2019-04-19T12:47:42.973Z,15.70
2019-04-19T12:50:17.949Z,16.34
2019-04-19T12:52:52.179Z,16.46
2019-04-19T12:55:28.065Z,16.57
2019-04-19T12:58:04.078Z,16.34
2019-04-19T13:01:01.787Z,16.15
2019-04-19T13:03:54.768Z,16.71
2019-04-19T13:06:31.514Z,15.26
2019-04-19T13:09:11.087Z,16.01
2019-04-19T13:11:45.118Z,16.39
2019-04-19T13:14:19.653Z,15.43
2019-04-19T13:16:54.465Z,15.34
2019-04-19T13:19:29.110Z,15.08
2019-04-19T13:22:02.969Z,14.86
2019-04-19T13:24:36.733Z,14.20
2019-04-19T13:27:11.589Z,14.71
2019-04-19T13:29:45.886Z,13.68
2019-04-19T13:32:20.076Z,14.24
2019-04-19T13:34:54.874Z,14.15
2019-04-19T13:37:45.251Z,13.37
2019-04-19T13:40:38.637Z,13.88
2019-04-19T13:43:13.090Z,13.28
2019-04-19T13:45:47.400Z,13.74
2019-04-19T13:48:22.783Z,14.00
2019-04-19T13:50:56.675Z,13.21
2019-04-19T13:53:30.905Z,13.33
2019-04-19T13:56:06.541Z,13.32
2019-04-19T13:58:40.304Z,13.45
2019-04-19T14:01:14.567Z,14.20
2019-04-19T14:03:48.436Z,14.09
2019-04-19T14:06:24.448Z,13.93
2019-04-19T14:08:58.355Z,13.95
2019-04-19T14:11:33.095Z,14.17
2019-04-19T14:14:07.812Z,14.88
2019-04-19T14:16:41.980Z,16.00
2019-04-19T14:19:16.402Z,14.83
2019-04-19T14:21:50.913Z,15.96
2019-04-19T14:24:25.217Z,17.37
2019-04-19T14:27:00.749Z,15.94
2019-04-19T14:29:35.326Z,14.49
2019-04-19T14:32:09.457Z,15.45
2019-04-19T14:34:43.737Z,15.33
2019-04-19T14:37:18.810Z,15.07
2019-04-19T14:39:52.715Z,16.12
2019-04-19T14:42:28.424Z,16.13
2019-04-19T14:45:02.155Z,16.07
2019-04-19T14:47:37.072Z,17.14
2019-04-19T14:50:12.689Z,16.69
2019-04-19T14:52:46.582Z,16.34
2019-04-19T14:55:21.147Z,15.72
2019-04-19T14:57:56.122Z,16.28
2019-04-19T15:00:30.689Z,16.02
2019-04-19T15:03:15.082Z,15.69
2019-04-19T15:05:50.415Z,17.73
2019-04-19T15:08:24.454Z,19.36
2019-04-19T15:10:58.137Z,20.43
2019-04-19T15:13:32.761Z,21.01
2019-04-19T15:16:06.958Z,18.29
2019-04-19T15:18:40.775Z,20.21
2019-04-19T15:21:17.572Z,20.70
2019-04-19T15:23:50.216Z,23.07
2019-04-19T15:26:24.914Z,24.14
2019-04-19T15:28:59.071Z,22.72
2019-04-19T15:31:32.868Z,24.22
2019-04-19T15:34:06.766Z,25.48
2019-04-19T15:36:41.579Z,25.42
2019-04-19T15:39:15.823Z,25.66
2019-04-19T15:41:50.658Z,22.80
2019-04-19T15:44:25.123Z,24.49
2019-04-19T15:46:59.910Z,24.61
2019-04-19T15:49:34.107Z,23.85
2019-04-19T15:52:08.131Z,24.24
2019-04-19T15:54:41.926Z,24.80
2019-04-19T15:57:16.379Z,26.95
2019-04-19T15:59:51.701Z,29.40
2019-04-19T16:02:36.177Z,29.19
2019-04-19T16:05:28.369Z,29.20
2019-04-19T16:08:24.768Z,28.02
2019-04-19T16:11:16.540Z,27.48
2019-04-19T16:13:50.227Z,27.91
2019-04-19T16:16:24.822Z,29.94
2019-04-19T16:18:58.700Z,30.31
2019-04-19T16:21:41.005Z,29.42
2019-04-19T16:24:09.106Z,30.56
2019-04-19T16:26:42.935Z,30.35
2019-04-19T16:29:30.479Z,31.60
2019-04-19T16:31:52.220Z,29.83
2019-04-19T16:34:27.162Z,30.90
2019-04-19T16:37:01.067Z,31.10
2019-04-19T16:39:35.521Z,31.78
2019-04-19T16:42:09.529Z,32.81
2019-04-19T16:44:43.704Z,33.04
2019-04-19T16:47:17.458Z,32.47
2019-04-19T16:49:52.187Z,33.41
2019-04-19T16:52:26.909Z,33.95
2019-04-19T16:55:00.793Z,34.38
2019-04-19T16:57:34.960Z,34.20
2019-04-19T17:00:10.965Z,33.28
2019-04-19T17:02:45.015Z,32.47
2019-04-19T17:05:18.922Z,33.21
2019-04-19T17:07:53.284Z,34.21
2019-04-19T17:10:27.028Z,34.48
2019-04-19T17:13:01.194Z,34.79
2019-04-19T17:15:52.906Z,34.48
2019-04-19T17:18:52.868Z,34.49
2019-04-19T17:21:28.167Z,35.86
2019-04-19T17:24:02.884Z,35.05
2019-04-19T17:26:37.318Z,35.72
2019-04-19T17:29:11.212Z,36.06
2019-04-19T17:31:45.268Z,37.17
2019-04-19T17:34:20.179Z,37.21
2019-04-19T17:36:53.967Z,38.02
2019-04-19T17:39:28.808Z,37.83
2019-04-19T17:42:02.570Z,37.57
2019-04-19T17:44:37.435Z,37.73
2019-04-19T17:47:13.208Z,36.85
2019-04-19T17:49:48.574Z,37.36
2019-04-19T17:52:27.153Z,39.14
2019-04-19T17:55:10.401Z,38.47
2019-04-19T17:57:34.053Z,37.73
2019-04-19T18:00:10.225Z,38.87
2019-04-19T18:02:44.097Z,38.68
2019-04-19T18:05:18.058Z,38.93
2019-04-19T18:07:52.536Z,40.24
2019-04-19T18:10:37.748Z,40.30
2019-04-19T18:13:03.422Z,40.40
2019-04-19T18:15:38.425Z,40.47
2019-04-19T18:18:13.687Z,41.20
2019-04-19T18:20:52.489Z,40.06
2019-04-19T18:23:34.757Z,40.38
2019-04-19T18:25:59.197Z,41.20
2019-04-19T18:28:38.074Z,41.70
2019-04-19T18:31:11.077Z,40.32
2019-04-19T18:33:58.903Z,40.36
2019-04-19T18:36:25.689Z,40.92
2019-04-19T18:39:00.294Z,40.37
2019-04-19T18:41:34.616Z,41.32
2019-04-19T18:44:18.709Z,41.33
2019-04-19T18:46:44.881Z,42.07
2019-04-19T18:49:18.693Z,40.99
2019-04-19T18:51:54.011Z,42.24
2019-04-19T18:54:42.276Z,42.55
2019-04-19T18:57:06.316Z,42.74
2019-04-19T18:59:39.110Z,43.13
2019-04-19T19:02:16.092Z,42.83
2019-04-19T19:04:48.703Z,42.79
2019-04-19T19:07:26.539Z,43.66
2019-04-19T19:10:02.625Z,43.25
2019-04-19T19:12:39.477Z,43.85
2019-04-19T19:15:12.542Z,44.13
2019-04-19T19:17:51.003Z,43.27
2019-04-19T19:20:27.669Z,43.69
2019-04-19T19:23:15.425Z,43.71
2019-04-19T19:25:48.292Z,44.06
2019-04-19T19:28:20.008Z,44.65
2019-04-19T19:30:53.557Z,44.31
2019-04-19T19:33:36.533Z,44.16
2019-04-19T19:36:03.922Z,44.69
2019-04-19T19:38:41.611Z,45.00
2019-04-19T19:41:35.202Z,44.88
2019-04-19T19:44:01.259Z,44.80
2019-04-19T19:46:55.780Z,45.32
2019-04-19T19:49:37.307Z,45.57
2019-04-19T19:51:50.062Z,45.15
2019-04-19T19:57:11.434Z,47.19
2019-04-19T19:59:33.327Z,48.17
2019-04-19T20:02:16.767Z,48.22
2019-04-19T20:04:41.240Z,48.50
2019-04-19T20:07:17.580Z,49.13
2019-04-19T20:09:53.895Z,49.07
2019-04-19T20:12:29.355Z,49.71
2019-04-19T20:15:02.919Z,49.20
2019-04-19T20:17:37.343Z,49.37
2019-04-19T20:20:12.182Z,49.50
2019-04-19T20:22:48.812Z,49.15
2019-04-19T20:25:32.489Z,48.18
2019-04-19T20:27:59.327Z,49.32
2019-04-19T20:30:37.952Z,48.45
2019-04-19T20:33:11.661Z,48.01
2019-04-19T20:35:53.946Z,49.40
2019-04-19T20:38:23.659Z,49.54
2019-04-19T20:40:59.846Z,49.48
2019-04-19T20:43:45.882Z,50.35
2019-04-19T20:46:15.923Z,50.64
2019-04-19T20:48:45.827Z,51.66
2019-04-19T20:51:35.385Z,52.44
2019-04-19T20:54:06.138Z,53.15
2019-04-19T20:57:04.373Z,54.27
2019-04-19T20:59:18.179Z,55.05
2019-04-19T21:01:52.815Z,55.23
2019-04-19T21:04:27.061Z,55.67
2019-04-19T21:07:07.972Z,56.17
2019-04-19T21:09:37.509Z,56.54
2019-04-19T21:12:17.088Z,56.39
2019-04-19T21:14:48.717Z,57.24
2019-04-19T21:17:26.267Z,57.18
2019-04-19T21:19:58.483Z,57.30
2019-04-19T21:22:36.412Z,58.12
2019-04-19T21:25:16.633Z,58.09
2019-04-19T21:27:49.195Z,58.42
2019-04-19T21:30:20.924Z,58.27
2019-04-19T21:33:04.384Z,58.97
2019-04-19T21:35:33.168Z,58.78
2019-04-19T21:38:14.244Z,59.29
2019-04-19T21:40:45.689Z,59.67
2019-04-19T21:43:23.432Z,59.82
2019-04-19T21:45:55.672Z,59.80
2019-04-19T21:48:34.785Z,60.30
2019-04-19T21:51:06.013Z,59.87
2019-04-19T21:53:43.973Z,59.41
2019-04-19T21:56:17.169Z,60.24
2019-04-19T21:58:54.378Z,61.08
2019-04-19T22:01:27.972Z,61.65
2019-04-19T22:04:08.539Z,62.23
2019-04-19T22:06:39.056Z,62.49
2019-04-19T22:09:19.283Z,63.19
2019-04-19T22:11:50.054Z,63.64
2019-04-19T22:14:29.347Z,64.15
2019-04-19T22:17:00.918Z,64.30
2019-04-19T22:19:39.057Z,64.90
2019-04-19T22:22:21.211Z,64.88
2019-04-19T22:24:51.139Z,65.24
2019-04-19T22:27:25.399Z,65.26
2019-04-19T22:29:59.803Z,65.25
2019-04-19T22:32:34.440Z,65.69
2019-04-19T22:35:15.136Z,65.57
2019-04-19T22:37:44.175Z,65.84
2019-04-19T22:40:18.811Z,65.78
2019-04-19T22:43:01.600Z,65.63
2019-04-19T22:45:28.756Z,65.78
2019-04-19T22:48:12.546Z,65.71
2019-04-19T22:50:40.484Z,65.98
2019-04-19T22:53:19.107Z,66.26
2019-04-19T22:55:59.227Z,66.35
2019-04-19T22:58:29.967Z,66.48
2019-04-19T23:01:03.186Z,66.67
2019-04-19T23:03:41.898Z,66.85
2019-04-19T23:06:20.731Z,66.68
2019-04-19T23:08:50.543Z,67.22
2019-04-19T23:11:25.717Z,67.19
2019-04-19T23:14:01.089Z,67.52
2019-04-19T23:16:43.604Z,67.56
2019-04-19T23:19:14.135Z,67.44
2019-04-19T23:21:48.422Z,68.14
2019-04-19T23:24:22.981Z,68.12
2019-04-19T23:27:09.649Z,68.42
2019-04-19T23:29:34.948Z,68.26
2019-04-19T23:32:09.051Z,68.67
2019-04-19T23:34:49.185Z,68.98
2019-04-19T23:37:19.604Z,68.79
2019-04-19T23:39:54.941Z,69.28
2019-04-19T23:42:29.734Z,69.53
2019-04-19T23:45:06.267Z,69.78
2019-04-19T23:47:44.920Z,69.96
2019-04-19T23:50:17.575Z,70.15
2019-04-19T23:52:56.231Z,70.35
2019-04-19T23:55:28.693Z,70.30
2019-04-19T23:58:03.085Z,70.12
